sensor_id;sensor_type;location;lat;lon;timestamp;P1;durP1;ratioP1;P2;durP2;ratioP2
22007;SDS011;11168;56.976;24.168;2022-07-25T00:01:05;3.10;;;1.23;;
22007;SDS011;11168;56.976;24.168;2022-07-25T00:03:32;2.25;;;1.17;;
22007;SDS011;11168;56.976;24.168;2022-07-25T00:06:00;4.30;;;1.15;;
22007;SDS011;11168;56.976;24.168;2022-07-25T00:08:27;2.90;;;1.00;;
22007;SDS011;11168;56.976;24.168;2022-07-25T00:10:54;1.27;;;0.85;;
22007;SDS011;11168;56.976;24.168;2022-07-25T00:13:22;1.98;;;0.93;;
22007;SDS011;11168;56.976;24.168;2022-07-25T00:15:49;2.08;;;1.00;;
22007;SDS011;11168;56.976;24.168;2022-07-25T00:18:17;1.00;;;0.90;;
22007;SDS011;11168;56.976;24.168;2022-07-25T00:20:44;1.77;;;0.98;;
22007;SDS011;11168;56.976;24.168;2022-07-25T00:23:12;2.10;;;1.10;;
22007;SDS011;11168;56.976;24.168;2022-07-25T00:25:40;1.33;;;0.98;;
22007;SDS011;11168;56.976;24.168;2022-07-25T00:28:07;1.63;;;1.00;;
22007;SDS011;11168;56.976;24.168;2022-07-25T00:30:34;2.80;;;1.13;;
22007;SDS011;11168;56.976;24.168;2022-07-25T00:33:02;2.47;;;1.33;;
22007;SDS011;11168;56.976;24.168;2022-07-25T00:35:29;2.78;;;0.98;;
22007;SDS011;11168;56.976;24.168;2022-07-25T00:37:56;1.63;;;1.10;;
22007;SDS011;11168;56.976;24.168;2022-07-25T00:40:24;2.53;;;1.40;;
22007;SDS011;11168;56.976;24.168;2022-07-25T00:42:51;4.63;;;1.27;;
22007;SDS011;11168;56.976;24.168;2022-07-25T00:45:18;2.47;;;1.00;;
22007;SDS011;11168;56.976;24.168;2022-07-25T00:47:46;2.05;;;1.30;;
22007;SDS011;11168;56.976;24.168;2022-07-25T00:50:13;2.88;;;1.63;;
22007;SDS011;11168;56.976;24.168;2022-07-25T00:52:41;1.88;;;1.33;;
22007;SDS011;11168;56.976;24.168;2022-07-25T00:55:08;1.70;;;1.20;;
22007;SDS011;11168;56.976;24.168;2022-07-25T00:57:35;2.40;;;1.08;;
22007;SDS011;11168;56.976;24.168;2022-07-25T01:00:07;3.60;;;1.30;;
22007;SDS011;11168;56.976;24.168;2022-07-25T01:02:35;4.00;;;1.00;;
22007;SDS011;11168;56.976;24.168;2022-07-25T01:05:03;2.40;;;1.15;;
22007;SDS011;11168;56.976;24.168;2022-07-25T01:07:31;1.80;;;1.20;;
22007;SDS011;11168;56.976;24.168;2022-07-25T01:09:58;2.28;;;1.30;;
22007;SDS011;11168;56.976;24.168;2022-07-25T01:12:26;2.35;;;1.13;;
22007;SDS011;11168;56.976;24.168;2022-07-25T01:14:53;2.25;;;1.35;;
22007;SDS011;11168;56.976;24.168;2022-07-25T01:17:21;4.25;;;0.90;;
22007;SDS011;11168;56.976;24.168;2022-07-25T01:19:48;2.00;;;1.10;;
22007;SDS011;11168;56.976;24.168;2022-07-25T01:22:16;2.00;;;1.27;;
22007;SDS011;11168;56.976;24.168;2022-07-25T01:24:44;3.38;;;1.23;;
22007;SDS011;11168;56.976;24.168;2022-07-25T01:27:11;4.40;;;1.40;;
22007;SDS011;11168;56.976;24.168;2022-07-25T01:29:42;2.72;;;1.20;;
22007;SDS011;11168;56.976;24.168;2022-07-25T01:32:10;1.73;;;1.20;;
22007;SDS011;11168;56.976;24.168;2022-07-25T01:34:38;1.30;;;1.20;;
22007;SDS011;11168;56.976;24.168;2022-07-25T01:37:05;3.42;;;1.30;;
22007;SDS011;11168;56.976;24.168;2022-07-25T01:39:32;1.40;;;1.20;;
22007;SDS011;11168;56.976;24.168;2022-07-25T01:42:00;3.20;;;1.55;;
22007;SDS011;11168;56.976;24.168;2022-07-25T01:44:27;1.70;;;1.30;;
22007;SDS011;11168;56.976;24.168;2022-07-25T01:46:54;4.20;;;1.50;;
22007;SDS011;11168;56.976;24.168;2022-07-25T01:49:22;2.35;;;1.40;;
22007;SDS011;11168;56.976;24.168;2022-07-25T01:51:51;2.80;;;1.50;;
22007;SDS011;11168;56.976;24.168;2022-07-25T01:54:19;2.95;;;1.40;;
22007;SDS011;11168;56.976;24.168;2022-07-25T01:56:47;4.57;;;1.60;;
22007;SDS011;11168;56.976;24.168;2022-07-25T01:59:14;2.45;;;1.67;;
22007;SDS011;11168;56.976;24.168;2022-07-25T02:01:42;2.75;;;1.60;;
22007;SDS011;11168;56.976;24.168;2022-07-25T02:04:10;2.40;;;1.48;;
22007;SDS011;11168;56.976;24.168;2022-07-25T02:06:37;1.75;;;1.50;;
22007;SDS011;11168;56.976;24.168;2022-07-25T02:09:06;2.35;;;1.45;;
22007;SDS011;11168;56.976;24.168;2022-07-25T02:11:35;3.90;;;1.58;;
22007;SDS011;11168;56.976;24.168;2022-07-25T02:14:02;2.80;;;1.70;;
22007;SDS011;11168;56.976;24.168;2022-07-25T02:16:30;1.30;;;1.20;;
22007;SDS011;11168;56.976;24.168;2022-07-25T02:18:58;1.58;;;1.48;;
22007;SDS011;11168;56.976;24.168;2022-07-25T02:21:25;1.60;;;1.50;;
22007;SDS011;11168;56.976;24.168;2022-07-25T02:23:52;1.63;;;1.40;;
22007;SDS011;11168;56.976;24.168;2022-07-25T02:26:20;2.38;;;1.70;;
22007;SDS011;11168;56.976;24.168;2022-07-25T02:28:48;2.45;;;1.88;;
22007;SDS011;11168;56.976;24.168;2022-07-25T02:31:15;4.22;;;1.60;;
22007;SDS011;11168;56.976;24.168;2022-07-25T02:33:43;2.55;;;1.67;;
22007;SDS011;11168;56.976;24.168;2022-07-25T02:36:11;2.95;;;1.80;;
22007;SDS011;11168;56.976;24.168;2022-07-25T02:38:38;1.90;;;1.70;;
22007;SDS011;11168;56.976;24.168;2022-07-25T02:41:05;3.85;;;1.80;;
22007;SDS011;11168;56.976;24.168;2022-07-25T02:43:33;2.72;;;2.00;;
22007;SDS011;11168;56.976;24.168;2022-07-25T02:46:00;4.05;;;1.70;;
22007;SDS011;11168;56.976;24.168;2022-07-25T02:48:28;2.20;;;1.95;;
22007;SDS011;11168;56.976;24.168;2022-07-25T02:50:55;3.95;;;2.17;;
22007;SDS011;11168;56.976;24.168;2022-07-25T02:53:22;2.60;;;1.95;;
22007;SDS011;11168;56.976;24.168;2022-07-25T02:56:10;4.07;;;2.20;;
22007;SDS011;11168;56.976;24.168;2022-07-25T02:58:39;4.13;;;2.20;;
22007;SDS011;11168;56.976;24.168;2022-07-25T03:01:06;2.90;;;2.15;;
22007;SDS011;11168;56.976;24.168;2022-07-25T03:03:34;2.72;;;2.08;;
22007;SDS011;11168;56.976;24.168;2022-07-25T03:06:01;5.53;;;2.60;;
22007;SDS011;11168;56.976;24.168;2022-07-25T03:08:29;2.85;;;1.90;;
22007;SDS011;11168;56.976;24.168;2022-07-25T03:10:56;5.65;;;2.35;;
22007;SDS011;11168;56.976;24.168;2022-07-25T03:13:24;4.50;;;2.42;;
22007;SDS011;11168;56.976;24.168;2022-07-25T03:15:51;4.35;;;2.53;;
22007;SDS011;11168;56.976;24.168;2022-07-25T03:18:19;5.10;;;2.67;;
22007;SDS011;11168;56.976;24.168;2022-07-25T03:20:46;2.90;;;2.28;;
22007;SDS011;11168;56.976;24.168;2022-07-25T03:23:13;3.55;;;2.30;;
22007;SDS011;11168;56.976;24.168;2022-07-25T03:25:41;4.07;;;2.10;;
22007;SDS011;11168;56.976;24.168;2022-07-25T03:28:08;2.72;;;2.20;;
22007;SDS011;11168;56.976;24.168;2022-07-25T03:30:35;2.53;;;2.13;;
22007;SDS011;11168;56.976;24.168;2022-07-25T03:33:03;4.85;;;2.45;;
22007;SDS011;11168;56.976;24.168;2022-07-25T03:35:30;5.50;;;2.35;;
22007;SDS011;11168;56.976;24.168;2022-07-25T03:38:00;5.88;;;2.17;;
22007;SDS011;11168;56.976;24.168;2022-07-25T03:40:28;3.60;;;2.35;;
22007;SDS011;11168;56.976;24.168;2022-07-25T03:42:56;3.92;;;2.33;;
22007;SDS011;11168;56.976;24.168;2022-07-25T03:45:24;2.97;;;2.20;;
22007;SDS011;11168;56.976;24.168;2022-07-25T03:47:52;3.58;;;2.30;;
22007;SDS011;11168;56.976;24.168;2022-07-25T03:50:19;3.10;;;2.30;;
22007;SDS011;11168;56.976;24.168;2022-07-25T03:52:46;3.92;;;1.95;;
22007;SDS011;11168;56.976;24.168;2022-07-25T03:55:14;4.35;;;2.00;;
22007;SDS011;11168;56.976;24.168;2022-07-25T03:57:41;5.93;;;2.17;;
22007;SDS011;11168;56.976;24.168;2022-07-25T04:00:09;4.53;;;2.00;;
22007;SDS011;11168;56.976;24.168;2022-07-25T04:02:37;5.85;;;2.10;;
22007;SDS011;11168;56.976;24.168;2022-07-25T04:05:05;3.70;;;2.33;;
22007;SDS011;11168;56.976;24.168;2022-07-25T04:07:33;2.35;;;2.00;;
22007;SDS011;11168;56.976;24.168;2022-07-25T04:10:01;4.82;;;2.60;;
22007;SDS011;11168;56.976;24.168;2022-07-25T04:12:28;2.72;;;1.90;;
22007;SDS011;11168;56.976;24.168;2022-07-25T04:14:55;3.50;;;2.30;;
22007;SDS011;11168;56.976;24.168;2022-07-25T04:17:23;2.60;;;2.22;;
22007;SDS011;11168;56.976;24.168;2022-07-25T04:19:51;4.90;;;2.50;;
22007;SDS011;11168;56.976;24.168;2022-07-25T04:22:18;3.20;;;2.50;;
22007;SDS011;11168;56.976;24.168;2022-07-25T04:24:46;3.45;;;2.47;;
22007;SDS011;11168;56.976;24.168;2022-07-25T04:27:13;5.97;;;2.30;;
22007;SDS011;11168;56.976;24.168;2022-07-25T04:29:40;4.70;;;2.30;;
22007;SDS011;11168;56.976;24.168;2022-07-25T04:32:08;4.95;;;2.50;;
22007;SDS011;11168;56.976;24.168;2022-07-25T04:34:35;5.35;;;2.20;;
22007;SDS011;11168;56.976;24.168;2022-07-25T04:37:03;2.38;;;2.00;;
22007;SDS011;11168;56.976;24.168;2022-07-25T04:39:30;6.38;;;2.40;;
22007;SDS011;11168;56.976;24.168;2022-07-25T04:41:57;4.55;;;2.60;;
22007;SDS011;11168;56.976;24.168;2022-07-25T04:44:25;5.78;;;2.72;;
22007;SDS011;11168;56.976;24.168;2022-07-25T04:46:52;8.55;;;3.38;;
22007;SDS011;11168;56.976;24.168;2022-07-25T04:49:19;9.50;;;3.22;;
22007;SDS011;11168;56.976;24.168;2022-07-25T04:51:46;13.32;;;4.00;;
22007;SDS011;11168;56.976;24.168;2022-07-25T04:54:14;20.63;;;4.40;;
22007;SDS011;11168;56.976;24.168;2022-07-25T04:56:41;19.52;;;4.72;;
22007;SDS011;11168;56.976;24.168;2022-07-25T04:59:09;22.05;;;4.53;;
22007;SDS011;11168;56.976;24.168;2022-07-25T05:01:36;13.85;;;3.78;;
22007;SDS011;11168;56.976;24.168;2022-07-25T05:04:03;10.35;;;3.15;;
22007;SDS011;11168;56.976;24.168;2022-07-25T05:06:31;6.28;;;2.83;;
22007;SDS011;11168;56.976;24.168;2022-07-25T05:08:59;9.23;;;3.10;;
22007;SDS011;11168;56.976;24.168;2022-07-25T05:11:26;6.28;;;2.95;;
22007;SDS011;11168;56.976;24.168;2022-07-25T05:13:53;6.18;;;3.00;;
22007;SDS011;11168;56.976;24.168;2022-07-25T05:16:21;9.02;;;3.10;;
22007;SDS011;11168;56.976;24.168;2022-07-25T05:18:49;6.90;;;2.88;;
22007;SDS011;11168;56.976;24.168;2022-07-25T05:21:16;9.50;;;3.20;;
22007;SDS011;11168;56.976;24.168;2022-07-25T05:23:44;13.95;;;3.75;;
22007;SDS011;11168;56.976;24.168;2022-07-25T05:26:11;15.57;;;4.28;;
22007;SDS011;11168;56.976;24.168;2022-07-25T05:28:38;24.05;;;4.30;;
22007;SDS011;11168;56.976;24.168;2022-07-25T05:31:06;16.42;;;4.03;;
22007;SDS011;11168;56.976;24.168;2022-07-25T05:33:33;9.57;;;3.33;;
22007;SDS011;11168;56.976;24.168;2022-07-25T05:36:00;8.93;;;3.88;;
22007;SDS011;11168;56.976;24.168;2022-07-25T05:38:29;7.82;;;3.20;;
22007;SDS011;11168;56.976;24.168;2022-07-25T05:40:57;7.18;;;2.85;;
22007;SDS011;11168;56.976;24.168;2022-07-25T05:43:24;7.47;;;3.40;;
22007;SDS011;11168;56.976;24.168;2022-07-25T05:45:51;6.68;;;3.40;;
22007;SDS011;11168;56.976;24.168;2022-07-25T05:48:19;7.78;;;2.92;;
22007;SDS011;11168;56.976;24.168;2022-07-25T05:50:46;5.90;;;2.92;;
22007;SDS011;11168;56.976;24.168;2022-07-25T05:53:13;7.82;;;3.00;;
22007;SDS011;11168;56.976;24.168;2022-07-25T05:55:41;10.18;;;3.25;;
22007;SDS011;11168;56.976;24.168;2022-07-25T05:58:08;8.77;;;3.22;;
22007;SDS011;11168;56.976;24.168;2022-07-25T06:00:36;6.75;;;2.65;;
22007;SDS011;11168;56.976;24.168;2022-07-25T06:03:04;6.78;;;2.70;;
22007;SDS011;11168;56.976;24.168;2022-07-25T06:05:31;6.63;;;2.75;;
22007;SDS011;11168;56.976;24.168;2022-07-25T06:07:59;4.22;;;2.58;;
22007;SDS011;11168;56.976;24.168;2022-07-25T06:10:26;4.72;;;2.28;;
22007;SDS011;11168;56.976;24.168;2022-07-25T06:12:54;3.63;;;2.50;;
22007;SDS011;11168;56.976;24.168;2022-07-25T06:15:21;6.70;;;2.70;;
22007;SDS011;11168;56.976;24.168;2022-07-25T06:20:20;5.22;;;2.50;;
22007;SDS011;11168;56.976;24.168;2022-07-25T06:22:47;4.63;;;3.00;;
22007;SDS011;11168;56.976;24.168;2022-07-25T06:25:14;4.85;;;3.17;;
22007;SDS011;11168;56.976;24.168;2022-07-25T06:27:42;8.60;;;3.15;;
22007;SDS011;11168;56.976;24.168;2022-07-25T06:30:09;7.15;;;2.90;;
22007;SDS011;11168;56.976;24.168;2022-07-25T06:32:46;4.50;;;2.40;;
22007;SDS011;11168;56.976;24.168;2022-07-25T06:35:13;4.38;;;2.65;;
22007;SDS011;11168;56.976;24.168;2022-07-25T06:37:41;4.55;;;2.35;;
22007;SDS011;11168;56.976;24.168;2022-07-25T06:40:08;3.40;;;2.20;;
22007;SDS011;11168;56.976;24.168;2022-07-25T06:42:42;2.95;;;1.90;;
22007;SDS011;11168;56.976;24.168;2022-07-25T06:45:10;2.25;;;2.03;;
22007;SDS011;11168;56.976;24.168;2022-07-25T06:47:37;2.35;;;1.90;;
22007;SDS011;11168;56.976;24.168;2022-07-25T06:50:05;2.10;;;1.90;;
22007;SDS011;11168;56.976;24.168;2022-07-25T06:55:04;6.47;;;2.22;;
22007;SDS011;11168;56.976;24.168;2022-07-25T06:57:31;6.43;;;2.42;;
22007;SDS011;11168;56.976;24.168;2022-07-25T06:59:59;8.98;;;2.58;;
22007;SDS011;11168;56.976;24.168;2022-07-25T07:02:26;4.78;;;1.80;;
22007;SDS011;11168;56.976;24.168;2022-07-25T07:04:53;3.53;;;1.50;;
22007;SDS011;11168;56.976;24.168;2022-07-25T07:07:21;4.70;;;1.67;;
22007;SDS011;11168;56.976;24.168;2022-07-25T07:09:48;3.03;;;1.10;;
22007;SDS011;11168;56.976;24.168;2022-07-25T07:12:15;2.13;;;1.20;;
22007;SDS011;11168;56.976;24.168;2022-07-25T07:14:43;2.60;;;1.10;;
22007;SDS011;11168;56.976;24.168;2022-07-25T07:17:10;5.55;;;1.35;;
22007;SDS011;11168;56.976;24.168;2022-07-25T07:19:37;3.20;;;1.30;;
22007;SDS011;11168;56.976;24.168;2022-07-25T07:22:09;2.45;;;1.20;;
22007;SDS011;11168;56.976;24.168;2022-07-25T07:24:38;3.65;;;1.30;;
22007;SDS011;11168;56.976;24.168;2022-07-25T07:27:09;1.55;;;1.05;;
22007;SDS011;11168;56.976;24.168;2022-07-25T07:29:36;2.00;;;1.30;;
22007;SDS011;11168;56.976;24.168;2022-07-25T07:32:04;41.95;;;5.00;;
22007;SDS011;11168;56.976;24.168;2022-07-25T07:34:32;19.15;;;3.25;;
22007;SDS011;11168;56.976;24.168;2022-07-25T07:36:59;2.15;;;1.30;;
22007;SDS011;11168;56.976;24.168;2022-07-25T07:39:27;3.35;;;1.20;;
22007;SDS011;11168;56.976;24.168;2022-07-25T07:41:55;2.05;;;1.10;;
22007;SDS011;11168;56.976;24.168;2022-07-25T07:44:22;2.00;;;1.20;;
22007;SDS011;11168;56.976;24.168;2022-07-25T07:46:49;1.50;;;1.10;;
22007;SDS011;11168;56.976;24.168;2022-07-25T07:49:17;4.03;;;1.30;;
22007;SDS011;11168;56.976;24.168;2022-07-25T07:51:44;2.47;;;1.27;;
22007;SDS011;11168;56.976;24.168;2022-07-25T07:54:12;1.50;;;1.00;;
22007;SDS011;11168;56.976;24.168;2022-07-25T07:56:58;1.27;;;1.10;;
22007;SDS011;11168;56.976;24.168;2022-07-25T07:59:25;2.42;;;1.20;;
22007;SDS011;11168;56.976;24.168;2022-07-25T08:01:53;3.35;;;1.30;;
22007;SDS011;11168;56.976;24.168;2022-07-25T08:04:20;3.53;;;1.33;;
22007;SDS011;11168;56.976;24.168;2022-07-25T08:06:47;2.83;;;1.30;;
22007;SDS011;11168;56.976;24.168;2022-07-25T08:09:15;3.30;;;1.00;;
22007;SDS011;11168;56.976;24.168;2022-07-25T08:11:43;3.72;;;1.35;;
22007;SDS011;11168;56.976;24.168;2022-07-25T08:14:11;1.40;;;1.10;;
22007;SDS011;11168;56.976;24.168;2022-07-25T08:16:38;1.58;;;1.13;;
22007;SDS011;11168;56.976;24.168;2022-07-25T08:19:05;1.35;;;1.00;;
22007;SDS011;11168;56.976;24.168;2022-07-25T08:21:33;3.35;;;0.90;;
22007;SDS011;11168;56.976;24.168;2022-07-25T08:24:00;1.52;;;1.10;;
22007;SDS011;11168;56.976;24.168;2022-07-25T08:26:29;1.05;;;0.95;;
22007;SDS011;11168;56.976;24.168;2022-07-25T08:28:59;0.93;;;0.90;;
22007;SDS011;11168;56.976;24.168;2022-07-25T08:31:44;2.15;;;1.00;;
22007;SDS011;11168;56.976;24.168;2022-07-25T08:34:12;2.13;;;1.10;;
22007;SDS011;11168;56.976;24.168;2022-07-25T08:36:39;2.40;;;1.00;;
22007;SDS011;11168;56.976;24.168;2022-07-25T08:39:06;2.45;;;1.30;;
22007;SDS011;11168;56.976;24.168;2022-07-25T08:41:34;2.42;;;0.90;;
22007;SDS011;11168;56.976;24.168;2022-07-25T08:44:01;0.88;;;0.88;;
22007;SDS011;11168;56.976;24.168;2022-07-25T08:46:29;0.90;;;0.90;;
22007;SDS011;11168;56.976;24.168;2022-07-25T08:48:57;1.17;;;0.90;;
22007;SDS011;11168;56.976;24.168;2022-07-25T08:51:25;3.22;;;0.95;;
22007;SDS011;11168;56.976;24.168;2022-07-25T08:53:53;0.75;;;0.75;;
22007;SDS011;11168;56.976;24.168;2022-07-25T08:56:21;0.77;;;0.77;;
22007;SDS011;11168;56.976;24.168;2022-07-25T08:58:49;3.03;;;1.00;;
22007;SDS011;11168;56.976;24.168;2022-07-25T09:01:17;2.63;;;0.95;;
22007;SDS011;11168;56.976;24.168;2022-07-25T09:03:44;2.13;;;1.08;;
22007;SDS011;11168;56.976;24.168;2022-07-25T09:06:19;1.10;;;1.00;;
22007;SDS011;11168;56.976;24.168;2022-07-25T09:08:53;1.23;;;0.80;;
22007;SDS011;11168;56.976;24.168;2022-07-25T09:11:31;2.15;;;0.80;;
22007;SDS011;11168;56.976;24.168;2022-07-25T09:13:59;1.35;;;0.95;;
22007;SDS011;11168;56.976;24.168;2022-07-25T09:16:27;0.90;;;0.80;;
22007;SDS011;11168;56.976;24.168;2022-07-25T09:19:12;0.80;;;0.80;;
22007;SDS011;11168;56.976;24.168;2022-07-25T09:21:40;1.60;;;0.77;;
22007;SDS011;11168;56.976;24.168;2022-07-25T09:24:10;1.50;;;0.80;;
22007;SDS011;11168;56.976;24.168;2022-07-25T09:26:54;0.80;;;0.70;;
22007;SDS011;11168;56.976;24.168;2022-07-25T09:29:23;0.82;;;0.73;;
22007;SDS011;11168;56.976;24.168;2022-07-25T09:31:51;1.77;;;0.88;;
22007;SDS011;11168;56.976;24.168;2022-07-25T09:34:31;1.30;;;0.90;;
22007;SDS011;11168;56.976;24.168;2022-07-25T09:37:01;2.00;;;0.95;;
22007;SDS011;11168;56.976;24.168;2022-07-25T09:42:14;1.98;;;1.00;;
22007;SDS011;11168;56.976;24.168;2022-07-25T09:44:42;2.63;;;1.02;;
22007;SDS011;11168;56.976;24.168;2022-07-25T09:47:10;0.80;;;0.80;;
22007;SDS011;11168;56.976;24.168;2022-07-25T09:49:41;3.38;;;0.90;;
22007;SDS011;11168;56.976;24.168;2022-07-25T09:52:09;1.80;;;1.13;;
22007;SDS011;11168;56.976;24.168;2022-07-25T09:54:37;2.15;;;0.93;;
22007;SDS011;11168;56.976;24.168;2022-07-25T09:57:05;1.65;;;1.10;;
22007;SDS011;11168;56.976;24.168;2022-07-25T09:59:32;1.70;;;1.00;;
22007;SDS011;11168;56.976;24.168;2022-07-25T10:04:57;2.38;;;1.08;;
22007;SDS011;11168;56.976;24.168;2022-07-25T10:07:25;1.75;;;1.00;;
22007;SDS011;11168;56.976;24.168;2022-07-25T10:09:56;0.77;;;0.70;;
22007;SDS011;11168;56.976;24.168;2022-07-25T10:12:25;0.90;;;0.90;;
22007;SDS011;11168;56.976;24.168;2022-07-25T10:15:11;1.50;;;1.02;;
22007;SDS011;11168;56.976;24.168;2022-07-25T10:17:39;0.82;;;0.80;;
22007;SDS011;11168;56.976;24.168;2022-07-25T10:20:08;1.10;;;1.00;;
22007;SDS011;11168;56.976;24.168;2022-07-25T10:25:22;2.22;;;0.75;;
22007;SDS011;11168;56.976;24.168;2022-07-25T10:27:51;1.00;;;0.90;;
22007;SDS011;11168;56.976;24.168;2022-07-25T10:32:59;2.05;;;1.10;;
22007;SDS011;11168;56.976;24.168;2022-07-25T10:35:27;2.60;;;1.10;;
22007;SDS011;11168;56.976;24.168;2022-07-25T10:37:55;1.05;;;0.95;;
22007;SDS011;11168;56.976;24.168;2022-07-25T10:42:56;1.17;;;1.05;;
22007;SDS011;11168;56.976;24.168;2022-07-25T10:45:32;1.33;;;1.10;;
22007;SDS011;11168;56.976;24.168;2022-07-25T10:48:07;2.42;;;1.25;;
22007;SDS011;11168;56.976;24.168;2022-07-25T10:50:45;1.50;;;1.40;;
22007;SDS011;11168;56.976;24.168;2022-07-25T10:56:23;1.75;;;1.20;;
22007;SDS011;11168;56.976;24.168;2022-07-25T10:58:58;1.55;;;1.40;;
22007;SDS011;11168;56.976;24.168;2022-07-25T11:03:59;4.30;;;1.40;;
22007;SDS011;11168;56.976;24.168;2022-07-25T11:06:31;3.20;;;1.40;;
22007;SDS011;11168;56.976;24.168;2022-07-25T11:08:59;6.13;;;1.90;;
22007;SDS011;11168;56.976;24.168;2022-07-25T11:11:33;3.95;;;1.85;;
22007;SDS011;11168;56.976;24.168;2022-07-25T11:14:01;4.85;;;2.03;;
22007;SDS011;11168;56.976;24.168;2022-07-25T11:16:29;4.25;;;1.90;;
22007;SDS011;11168;56.976;24.168;2022-07-25T11:18:56;3.22;;;1.80;;
22007;SDS011;11168;56.976;24.168;2022-07-25T11:21:23;3.05;;;1.55;;
22007;SDS011;11168;56.976;24.168;2022-07-25T11:23:51;3.67;;;1.60;;
22007;SDS011;11168;56.976;24.168;2022-07-25T11:26:18;5.03;;;1.73;;
22007;SDS011;11168;56.976;24.168;2022-07-25T11:28:47;1.70;;;1.60;;
22007;SDS011;11168;56.976;24.168;2022-07-25T11:31:15;6.45;;;1.75;;
22007;SDS011;11168;56.976;24.168;2022-07-25T11:33:44;3.47;;;1.70;;
22007;SDS011;11168;56.976;24.168;2022-07-25T11:36:12;2.78;;;1.80;;
22007;SDS011;11168;56.976;24.168;2022-07-25T11:38:41;2.60;;;2.00;;
22007;SDS011;11168;56.976;24.168;2022-07-25T11:41:08;4.93;;;2.67;;
22007;SDS011;11168;56.976;24.168;2022-07-25T11:43:36;5.25;;;2.30;;
22007;SDS011;11168;56.976;24.168;2022-07-25T11:46:04;4.30;;;2.45;;
22007;SDS011;11168;56.976;24.168;2022-07-25T11:51:15;2.08;;;1.80;;
22007;SDS011;11168;56.976;24.168;2022-07-25T11:53:46;2.58;;;1.67;;
22007;SDS011;11168;56.976;24.168;2022-07-25T11:56:20;3.88;;;1.92;;
22007;SDS011;11168;56.976;24.168;2022-07-25T11:59:08;4.63;;;2.53;;
22007;SDS011;11168;56.976;24.168;2022-07-25T12:01:37;4.20;;;3.00;;
22007;SDS011;11168;56.976;24.168;2022-07-25T12:06:35;3.90;;;3.17;;
22007;SDS011;11168;56.976;24.168;2022-07-25T12:09:12;4.35;;;3.38;;
22007;SDS011;11168;56.976;24.168;2022-07-25T12:11:44;4.03;;;3.30;;
22007;SDS011;11168;56.976;24.168;2022-07-25T12:14:12;3.13;;;2.78;;
22007;SDS011;11168;56.976;24.168;2022-07-25T12:16:40;2.97;;;2.40;;
22007;SDS011;11168;56.976;24.168;2022-07-25T12:19:08;4.68;;;2.28;;
22007;SDS011;11168;56.976;24.168;2022-07-25T12:21:36;2.60;;;2.40;;
22007;SDS011;11168;56.976;24.168;2022-07-25T12:24:03;3.22;;;2.92;;
22007;SDS011;11168;56.976;24.168;2022-07-25T12:26:31;3.80;;;3.40;;
22007;SDS011;11168;56.976;24.168;2022-07-25T12:28:58;8.85;;;3.40;;
22007;SDS011;11168;56.976;24.168;2022-07-25T12:31:25;5.85;;;3.70;;
22007;SDS011;11168;56.976;24.168;2022-07-25T12:33:54;5.13;;;3.50;;
22007;SDS011;11168;56.976;24.168;2022-07-25T12:36:21;4.43;;;3.60;;
22007;SDS011;11168;56.976;24.168;2022-07-25T12:38:49;4.80;;;3.80;;
22007;SDS011;11168;56.976;24.168;2022-07-25T12:41:16;4.97;;;3.50;;
22007;SDS011;11168;56.976;24.168;2022-07-25T12:43:48;5.50;;;3.47;;
22007;SDS011;11168;56.976;24.168;2022-07-25T12:46:15;7.55;;;3.40;;
22007;SDS011;11168;56.976;24.168;2022-07-25T12:48:43;4.03;;;3.60;;
22007;SDS011;11168;56.976;24.168;2022-07-25T12:51:10;4.22;;;3.60;;
22007;SDS011;11168;56.976;24.168;2022-07-25T12:53:37;6.03;;;4.00;;
22007;SDS011;11168;56.976;24.168;2022-07-25T12:56:08;4.20;;;3.80;;
22007;SDS011;11168;56.976;24.168;2022-07-25T12:58:35;3.58;;;3.30;;
22007;SDS011;11168;56.976;24.168;2022-07-25T13:01:03;3.38;;;3.08;;
22007;SDS011;11168;56.976;24.168;2022-07-25T13:03:31;4.55;;;3.10;;
22007;SDS011;11168;56.976;24.168;2022-07-25T13:05:59;4.25;;;3.88;;
22007;SDS011;11168;56.976;24.168;2022-07-25T13:08:26;4.72;;;3.85;;
22007;SDS011;11168;56.976;24.168;2022-07-25T13:10:53;3.75;;;3.35;;
22007;SDS011;11168;56.976;24.168;2022-07-25T13:13:21;7.80;;;3.30;;
22007;SDS011;11168;56.976;24.168;2022-07-25T13:15:49;4.85;;;2.67;;
22007;SDS011;11168;56.976;24.168;2022-07-25T13:18:17;4.20;;;2.90;;
22007;SDS011;11168;56.976;24.168;2022-07-25T13:20:44;4.68;;;2.70;;
22007;SDS011;11168;56.976;24.168;2022-07-25T13:23:11;3.42;;;2.95;;
22007;SDS011;11168;56.976;24.168;2022-07-25T13:25:45;4.32;;;2.42;;
22007;SDS011;11168;56.976;24.168;2022-07-25T13:28:13;3.28;;;2.97;;
22007;SDS011;11168;56.976;24.168;2022-07-25T13:30:40;4.10;;;2.97;;
22007;SDS011;11168;56.976;24.168;2022-07-25T13:33:08;3.58;;;3.28;;
22007;SDS011;11168;56.976;24.168;2022-07-25T13:35:35;3.25;;;2.88;;
22007;SDS011;11168;56.976;24.168;2022-07-25T13:38:07;3.72;;;2.90;;
22007;SDS011;11168;56.976;24.168;2022-07-25T13:40:34;3.00;;;2.70;;
22007;SDS011;11168;56.976;24.168;2022-07-25T13:43:09;3.60;;;3.00;;
22007;SDS011;11168;56.976;24.168;2022-07-25T13:45:36;4.35;;;3.45;;
22007;SDS011;11168;56.976;24.168;2022-07-25T13:48:04;3.42;;;2.90;;
22007;SDS011;11168;56.976;24.168;2022-07-25T13:50:52;3.42;;;2.92;;
22007;SDS011;11168;56.976;24.168;2022-07-25T13:53:19;3.85;;;2.47;;
22007;SDS011;11168;56.976;24.168;2022-07-25T13:55:50;2.53;;;2.20;;
22007;SDS011;11168;56.976;24.168;2022-07-25T13:58:18;3.92;;;2.10;;
22007;SDS011;11168;56.976;24.168;2022-07-25T14:00:45;6.57;;;2.45;;
22007;SDS011;11168;56.976;24.168;2022-07-25T14:03:12;3.33;;;2.45;;
22007;SDS011;11168;56.976;24.168;2022-07-25T14:05:40;6.45;;;2.55;;
22007;SDS011;11168;56.976;24.168;2022-07-25T14:08:07;6.13;;;2.90;;
22007;SDS011;11168;56.976;24.168;2022-07-25T14:10:34;8.75;;;2.42;;
22007;SDS011;11168;56.976;24.168;2022-07-25T14:13:02;2.33;;;1.85;;
22007;SDS011;11168;56.976;24.168;2022-07-25T14:15:30;3.88;;;2.28;;
22007;SDS011;11168;56.976;24.168;2022-07-25T14:17:57;4.13;;;2.25;;
22007;SDS011;11168;56.976;24.168;2022-07-25T14:20:24;4.80;;;2.40;;
22007;SDS011;11168;56.976;24.168;2022-07-25T14:22:52;5.03;;;2.58;;
22007;SDS011;11168;56.976;24.168;2022-07-25T14:25:19;8.13;;;3.03;;
22007;SDS011;11168;56.976;24.168;2022-07-25T14:27:47;3.80;;;2.60;;
22007;SDS011;11168;56.976;24.168;2022-07-25T14:30:15;8.07;;;2.15;;
22007;SDS011;11168;56.976;24.168;2022-07-25T14:32:42;6.70;;;2.53;;
22007;SDS011;11168;56.976;24.168;2022-07-25T14:35:10;5.50;;;2.72;;
22007;SDS011;11168;56.976;24.168;2022-07-25T14:37:37;2.28;;;2.08;;
22007;SDS011;11168;56.976;24.168;2022-07-25T14:40:04;9.13;;;2.42;;
22007;SDS011;11168;56.976;24.168;2022-07-25T14:42:32;2.47;;;2.10;;
22007;SDS011;11168;56.976;24.168;2022-07-25T14:44:59;4.75;;;2.33;;
22007;SDS011;11168;56.976;24.168;2022-07-25T14:47:27;6.55;;;2.28;;
22007;SDS011;11168;56.976;24.168;2022-07-25T14:49:54;7.40;;;2.38;;
22007;SDS011;11168;56.976;24.168;2022-07-25T14:52:22;6.85;;;2.28;;
22007;SDS011;11168;56.976;24.168;2022-07-25T14:54:50;2.75;;;2.15;;
22007;SDS011;11168;56.976;24.168;2022-07-25T14:57:17;7.72;;;2.42;;
22007;SDS011;11168;56.976;24.168;2022-07-25T14:59:44;6.35;;;2.60;;
22007;SDS011;11168;56.976;24.168;2022-07-25T15:02:12;3.42;;;2.28;;
22007;SDS011;11168;56.976;24.168;2022-07-25T15:04:39;7.43;;;3.42;;
22007;SDS011;11168;56.976;24.168;2022-07-25T15:07:07;10.93;;;4.22;;
22007;SDS011;11168;56.976;24.168;2022-07-25T15:09:34;11.38;;;4.18;;